createdAt,value
2022-08-03T00:01:29.351Z,22.10
2022-08-03T00:08:32.221Z,22.70
2022-08-03T00:15:39.667Z,21.70
2022-08-03T00:22:41.646Z,24.60
2022-08-03T00:29:57.604Z,23.30
2022-08-03T00:37:03.473Z,24.00
2022-08-03T00:44:15.915Z,24.20
2022-08-03T00:51:19.176Z,23.90
2022-08-03T00:58:22.703Z,26.10
2022-08-03T01:05:08.400Z,22.20
2022-08-03T01:12:04.211Z,21.60
2022-08-03T01:18:21.103Z,21.20
2022-08-03T01:24:55.680Z,22.80
2022-08-03T01:31:09.861Z,22.80
2022-08-03T01:37:49.108Z,24.30
2022-08-03T01:44:28.057Z,25.40
2022-08-03T01:50:38.734Z,29.70
2022-08-03T01:56:49.159Z,28.70
2022-08-03T02:03:09.192Z,25.90
2022-08-03T02:09:36.755Z,27.40
2022-08-03T02:15:53.372Z,23.50
2022-08-03T02:22:13.621Z,24.20
2022-08-03T02:28:50.901Z,21.70
2022-08-03T02:34:58.886Z,25.50
2022-08-03T02:41:23.246Z,30.30
2022-08-03T02:47:53.329Z,25.70
2022-08-03T02:54:14.850Z,29.30
2022-08-03T03:00:27.418Z,28.90
2022-08-03T03:06:33.468Z,30.40
2022-08-03T03:12:47.450Z,27.60
2022-08-03T03:18:58.018Z,33.30
2022-08-03T03:25:15.574Z,38.10
2022-08-03T03:31:22.865Z,25.70
2022-08-03T03:37:19.413Z,21.40
2022-08-03T03:43:33.387Z,27.40
2022-08-03T03:49:43.961Z,27.40
2022-08-03T03:55:36.867Z,29.60
2022-08-03T04:02:18.473Z,28.30
2022-08-03T04:08:45.825Z,28.40
2022-08-03T04:14:58.670Z,27.40
2022-08-03T04:21:12.022Z,29.70
2022-08-03T04:27:39.956Z,25.80
2022-08-03T04:33:51.298Z,29.10
2022-08-03T04:39:47.567Z,33.40
2022-08-03T04:46:13.719Z,27.00
2022-08-03T04:52:21.632Z,30.40
2022-08-03T04:58:29.197Z,36.20
2022-08-03T05:04:38.200Z,30.00
2022-08-03T05:10:50.398Z,32.90
2022-08-03T05:16:50.963Z,30.70
2022-08-03T05:23:08.927Z,32.50
2022-08-03T05:29:27.820Z,31.70
2022-08-03T05:35:57.187Z,31.30
2022-08-03T05:41:53.438Z,34.20
2022-08-03T05:48:56.699Z,46.90
2022-08-03T05:56:03.674Z,50.40
2022-08-03T06:02:38.000Z,43.50
2022-08-03T06:09:20.714Z,44.80
2022-08-03T06:16:16.474Z,38.00
2022-08-03T06:23:18.748Z,31.90
2022-08-03T06:30:21.839Z,42.10
2022-08-03T06:36:42.633Z,39.70
2022-08-03T06:42:22.990Z,39.60
2022-08-03T06:48:05.816Z,37.10
2022-08-03T06:53:27.808Z,38.40
2022-08-03T06:59:09.800Z,38.70
2022-08-03T07:04:57.244Z,39.50
2022-08-03T07:10:21.973Z,34.50
2022-08-03T07:16:00.548Z,38.30
2022-08-03T07:27:29.714Z,29.70
2022-08-03T07:33:08.356Z,29.30
2022-08-03T07:38:39.314Z,29.70
2022-08-03T07:44:18.256Z,23.30
2022-08-03T07:49:52.527Z,24.40
2022-08-03T07:55:36.349Z,22.90
2022-08-03T08:01:14.881Z,21.60
2022-08-03T08:07:11.721Z,20.70
2022-08-03T08:18:20.815Z,20.40
2022-08-03T08:23:53.732Z,18.70
2022-08-03T08:29:32.123Z,14.90
2022-08-03T08:36:12.012Z,22.40
2022-08-03T08:42:00.151Z,15.70
2022-08-03T08:48:27.246Z,16.80
2022-08-03T08:54:15.235Z,17.80
2022-08-03T08:59:56.995Z,14.10
2022-08-03T09:06:21.187Z,13.10
2022-08-03T09:12:42.470Z,14.60
2022-08-03T09:18:32.487Z,19.90
2022-08-03T09:24:41.623Z,14.10
2022-08-03T09:30:33.471Z,15.50
2022-08-03T09:37:01.536Z,16.50
2022-08-03T09:42:27.922Z,14.20
2022-08-03T09:49:02.694Z,32.50
2022-08-03T09:54:56.099Z,40.90
2022-08-03T10:00:22.648Z,19.50
2022-08-03T10:05:59.752Z,11.50
2022-08-03T10:11:42.660Z,11.50
2022-08-03T10:17:10.509Z,14.30
2022-08-03T10:22:50.304Z,14.00
2022-08-03T10:28:35.726Z,14.50
2022-08-03T10:34:24.322Z,12.90
2022-08-03T10:39:56.674Z,15.20
2022-08-03T10:45:40.050Z,11.60
2022-08-03T10:51:07.226Z,9.40
2022-08-03T10:56:55.521Z,12.50
2022-08-03T11:02:23.200Z,10.30
2022-08-03T11:07:45.514Z,9.90
2022-08-03T11:13:33.906Z,9.10
2022-08-03T11:19:16.857Z,12.30
2022-08-03T11:24:47.320Z,8.40
2022-08-03T11:30:30.023Z,10.20
2022-08-03T11:36:32.419Z,10.60
2022-08-03T11:41:57.730Z,9.00
2022-08-03T11:47:22.860Z,8.80
2022-08-03T11:52:50.194Z,8.40
2022-08-03T11:59:10.730Z,10.30
2022-08-03T12:04:08.198Z,7.50
2022-08-03T12:09:30.059Z,11.30
2022-08-03T12:14:58.985Z,7.10
2022-08-03T12:20:31.412Z,8.30
2022-08-03T12:26:10.807Z,7.20
2022-08-03T12:31:36.422Z,6.90
2022-08-03T12:37:45.926Z,6.90
2022-08-03T12:44:00.595Z,7.10
2022-08-03T12:50:43.631Z,12.30
2022-08-03T12:56:10.446Z,8.80
2022-08-03T13:01:55.116Z,8.10
2022-08-03T13:07:31.692Z,10.80
2022-08-03T13:12:53.865Z,10.40
2022-08-03T13:18:19.199Z,9.70
2022-08-03T13:23:42.821Z,7.90
2022-08-03T13:29:07.991Z,10.10
2022-08-03T13:34:46.269Z,11.40
2022-08-03T13:40:14.747Z,12.40
2022-08-03T13:46:15.422Z,10.60
2022-08-03T13:51:42.841Z,9.50
2022-08-03T13:58:12.472Z,9.80
2022-08-03T14:03:35.239Z,15.20
2022-08-03T14:09:00.564Z,10.30
2022-08-03T14:14:23.249Z,8.80
2022-08-03T14:19:52.745Z,13.20
2022-08-03T14:25:16.848Z,8.80
2022-08-03T14:30:41.851Z,9.40
2022-08-03T14:36:05.277Z,11.00
2022-08-03T14:41:28.040Z,9.20
2022-08-03T14:46:50.757Z,8.60
2022-08-03T14:52:12.977Z,12.60
2022-08-03T14:57:35.322Z,8.00
2022-08-03T15:02:58.423Z,10.60
2022-08-03T15:08:26.839Z,11.90
2022-08-03T15:13:51.562Z,10.40
2022-08-03T15:20:02.036Z,16.80
2022-08-03T15:24:56.466Z,10.10
2022-08-03T15:30:18.797Z,13.90
2022-08-03T15:35:41.763Z,13.00
2022-08-03T15:41:05.729Z,11.20
2022-08-03T15:46:36.112Z,8.70
2022-08-03T15:51:58.315Z,12.80
2022-08-03T15:57:21.666Z,9.20
2022-08-03T16:02:46.283Z,9.50
2022-08-03T16:08:18.094Z,10.80
2022-08-03T16:14:11.960Z,14.40
2022-08-03T16:19:24.633Z,11.10
2022-08-03T16:24:46.965Z,10.90
2022-08-03T16:30:11.996Z,9.50
2022-08-03T16:35:34.050Z,9.20
2022-08-03T16:40:56.578Z,12.10
2022-08-03T16:46:21.534Z,10.70
2022-08-03T16:52:26.087Z,10.00
2022-08-03T16:57:58.440Z,11.80
2022-08-03T17:03:24.346Z,12.90
2022-08-03T17:08:55.162Z,11.40
2022-08-03T17:14:22.830Z,15.60
2022-08-03T17:19:57.723Z,11.70
2022-08-03T17:26:13.680Z,14.00
2022-08-03T17:32:10.123Z,14.80
2022-08-03T17:37:57.454Z,16.30
2022-08-03T17:44:14.474Z,12.80
2022-08-03T17:48:59.517Z,19.20
2022-08-03T17:54:35.053Z,13.90
2022-08-03T18:00:42.701Z,16.60
2022-08-03T18:06:11.789Z,17.00
2022-08-03T18:11:45.848Z,18.50
2022-08-03T18:17:24.516Z,14.90
2022-08-03T18:23:36.213Z,29.40
2022-08-03T18:30:16.286Z,18.30
2022-08-03T18:36:41.639Z,18.60
2022-08-03T18:43:47.644Z,23.40
2022-08-03T18:51:28.595Z,17.60
2022-08-03T18:58:15.806Z,33.40
2022-08-03T19:05:19.719Z,29.00
2022-08-03T19:12:28.195Z,31.50
2022-08-03T19:19:26.934Z,30.50
2022-08-03T19:33:57.506Z,31.00
2022-08-03T19:40:51.117Z,28.90
2022-08-03T19:47:27.659Z,31.40
2022-08-03T19:54:14.584Z,33.80
2022-08-03T20:00:50.545Z,24.90
2022-08-03T20:07:22.622Z,31.70
2022-08-03T20:14:20.751Z,34.20
2022-08-03T20:21:18.643Z,31.00
2022-08-03T20:28:26.826Z,32.70
2022-08-03T20:34:53.229Z,36.50
2022-08-03T20:41:59.312Z,33.30
2022-08-03T20:48:54.770Z,29.00
2022-08-03T21:03:03.642Z,30.30
2022-08-03T21:10:09.962Z,29.40
2022-08-03T21:13:10.601Z,27.70
2022-08-03T21:13:12.190Z,29.10
2022-08-03T21:16:54.292Z,26.20
2022-08-03T21:23:40.258Z,27.50
2022-08-03T21:30:51.710Z,25.70
2022-08-03T21:37:33.517Z,26.60
2022-08-03T21:44:08.846Z,29.10
2022-08-03T21:51:11.869Z,28.20
2022-08-03T21:57:32.273Z,30.80
2022-08-03T22:04:55.635Z,25.70
2022-08-03T22:11:47.142Z,27.60
2022-08-03T22:18:41.369Z,30.00
2022-08-03T22:25:31.179Z,41.90
2022-08-03T22:32:26.800Z,27.50
2022-08-03T22:39:28.574Z,26.90
2022-08-03T22:46:15.675Z,26.70
2022-08-03T22:53:21.632Z,29.50
2022-08-03T23:00:24.761Z,24.00
2022-08-03T23:07:27.656Z,22.10
2022-08-03T23:14:22.685Z,24.50
2022-08-03T23:21:53.644Z,22.40
2022-08-03T23:28:48.954Z,30.50
2022-08-03T23:36:20.133Z,28.90
2022-08-03T23:43:15.518Z,31.50
2022-08-03T23:49:55.796Z,31.20
2022-08-03T23:56:27.808Z,31.80
